Time;durP1;ratioP1;P1;durP2;ratioP2;P2;SDS_P1;SDS_P2;PMS_P1;PMS_P2;Temp;Humidity;BMP_temperature;BMP_pressure;BME280_temperature;BME280_humidity;BME280_pressure;Samples;Min_cycle;Max_cycle;Signal;HPM_P1;HPM_P2
2022/04/22 00:01:17;;;;;;;9.75;5.40;;;15.10;53.40;;;;;;5054776;28;20071;-65
2022/04/22 00:03:43;;;;;;;9.90;5.50;;;15.10;53.50;;;;;;5052866;28;20120;-64
2022/04/22 00:06:09;;;;;;;9.10;5.68;;;15.00;53.60;;;;;;5053345;28;20029;-64
2022/04/22 00:08:35;;;;;;;9.52;5.35;;;15.00;53.80;;;;;;5052281;28;20032;-65
2022/04/22 00:13:45;;;;;;;8.75;5.65;;;14.90;53.90;;;;;;5044909;28;20035;-64
2022/04/22 00:16:11;;;;;;;12.25;6.10;;;14.90;54.00;;;;;;5054726;28;20079;-65
2022/04/22 00:18:37;;;;;;;10.07;5.57;;;14.90;54.00;;;;;;5050717;28;20404;-64
2022/04/22 00:21:03;;;;;;;8.40;5.25;;;14.90;54.70;;;;;;5036570;28;20033;-64
2022/04/22 00:23:29;;;;;;;11.05;6.10;;;14.90;54.20;;;;;;5042333;28;20028;-64
2022/04/22 00:25:55;;;;;;;9.57;5.65;;;14.80;54.30;;;;;;5054370;28;20054;-64
2022/04/22 00:28:21;;;;;;;9.68;5.43;;;14.80;54.40;;;;;;5052814;28;20438;-64
2022/04/22 00:30:47;;;;;;;9.82;5.75;;;14.80;54.50;;;;;;5051955;28;20110;-65
2022/04/22 00:33:14;;;;;;;8.73;5.35;;;14.80;54.50;;;;;;5051779;28;20385;-64
2022/04/22 00:35:40;;;;;;;12.52;5.82;;;14.80;54.60;;;;;;5053925;28;20036;-64
2022/04/22 00:38:06;;;;;;;11.70;5.60;;;14.80;54.70;;;;;;5039175;28;20056;-64
2022/04/22 00:40:31;;;;;;;9.63;5.97;;;14.80;54.80;;;;;;5035941;28;20029;-64
2022/04/22 00:42:57;;;;;;;9.50;6.13;;;14.80;54.90;;;;;;5033973;28;20072;-64
2022/04/22 00:45:23;;;;;;;9.57;5.57;;;14.70;54.90;;;;;;5047680;28;20427;-65
2022/04/22 00:47:48;;;;;;;9.07;5.95;;;14.70;55.00;;;;;;5047070;28;20091;-64
2022/04/22 00:50:14;;;;;;;11.60;6.18;;;14.70;55.10;;;;;;5046193;28;20036;-64
2022/04/22 00:52:40;;;;;;;8.70;5.60;;;14.60;55.10;;;;;;5051119;28;20039;-64
2022/04/22 00:55:08;;;;;;;9.98;6.15;;;14.60;55.10;;;;;;5052732;28;20422;-65
2022/04/22 00:57:33;;;;;;;11.93;6.75;;;14.60;55.20;;;;;;5046938;28;20017;-64
2022/04/22 01:00:00;;;;;;;10.70;6.07;;;14.60;55.30;;;;;;5053054;28;20059;-64
2022/04/22 01:02:26;;;;;;;10.15;5.57;;;14.60;55.40;;;;;;5053305;28;20091;-64
2022/04/22 01:10:20;;;;;;;10.00;5.43;;;14.50;55.60;;;;;;5050975;28;20051;-64
2022/04/22 01:12:46;;;;;;;11.02;5.63;;;14.50;55.70;;;;;;5055728;28;20120;-64
2022/04/22 01:15:12;;;;;;;10.57;5.45;;;14.50;55.70;;;;;;5052597;28;20029;-64
2022/04/22 01:17:38;;;;;;;9.18;5.80;;;14.50;55.80;;;;;;5057591;28;20031;-64
2022/04/22 01:20:05;;;;;;;8.00;4.88;;;14.50;55.90;;;;;;5052784;28;20040;-64
2022/04/22 01:22:30;;;;;;;10.07;5.70;;;14.50;55.90;;;;;;5053384;28;20033;-64
2022/04/22 01:24:58;;;;;;;9.75;5.30;;;14.40;55.90;;;;;;5046992;28;20059;-64
2022/04/22 01:27:27;;;;;;;9.60;5.18;;;14.40;56.00;;;;;;5049873;28;20499;-64
2022/04/22 01:29:53;;;;;;;10.43;5.93;;;14.40;56.00;;;;;;5047225;28;20028;-65
2022/04/22 01:32:19;;;;;;;9.75;5.50;;;14.40;56.10;;;;;;5056230;28;20063;-64
2022/04/22 01:34:45;;;;;;;11.02;5.68;;;14.40;56.30;;;;;;5045803;28;20029;-64
2022/04/22 01:37:11;;;;;;;10.90;6.13;;;14.30;56.90;;;;;;5054725;28;20017;-64
2022/04/22 01:39:36;;;;;;;10.30;5.82;;;14.30;56.40;;;;;;5051922;28;20122;-64
2022/04/22 01:42:02;;;;;;;12.02;6.13;;;14.30;56.50;;;;;;5057059;28;20072;-64
2022/04/22 01:44:28;;;;;;;14.77;6.63;;;14.30;56.60;;;;;;5045789;28;20549;-64
2022/04/22 01:46:54;;;;;;;11.80;6.75;;;14.30;56.70;;;;;;5054587;28;20041;-64
2022/04/22 01:49:19;;;;;;;11.40;6.38;;;14.20;56.60;;;;;;5049143;28;20021;-65
2022/04/22 01:51:45;;;;;;;11.52;6.05;;;14.20;56.70;;;;;;5056978;28;20116;-64
2022/04/22 01:54:11;;;;;;;10.35;5.43;;;14.20;56.70;;;;;;5055325;28;20021;-64
2022/04/22 01:56:37;;;;;;;10.85;6.15;;;14.20;56.80;;;;;;5056511;28;20032;-64
2022/04/22 01:59:02;;;;;;;9.65;5.50;;;14.20;56.80;;;;;;5050123;28;20030;-65
2022/04/22 02:01:29;;;;;;;11.52;5.88;;;14.20;57.60;;;;;;5055815;28;20029;-65
2022/04/22 02:03:55;;;;;;;9.57;5.65;;;14.20;57.10;;;;;;5052071;28;20120;-64
2022/04/22 02:06:21;;;;;;;11.50;6.25;;;14.10;57.20;;;;;;5048227;28;20342;-64
2022/04/22 02:08:47;;;;;;;13.30;5.88;;;14.10;57.20;;;;;;5055454;28;20116;-64
2022/04/22 02:11:13;;;;;;;11.38;6.00;;;14.10;57.20;;;;;;5050617;28;20033;-64
2022/04/22 02:13:38;;;;;;;9.55;5.28;;;14.10;57.30;;;;;;5055306;28;20350;-64
2022/04/22 02:16:05;;;;;;;9.82;5.35;;;14.10;57.40;;;;;;5044023;28;20029;-65
2022/04/22 02:18:31;;;;;;;12.23;5.95;;;14.10;57.50;;;;;;5056151;28;20060;-65
2022/04/22 02:20:57;;;;;;;10.05;5.55;;;14.10;57.50;;;;;;5054953;28;20051;-65
2022/04/22 02:23:23;;;;;;;10.10;5.90;;;14.00;57.50;;;;;;5043214;28;20037;-64
2022/04/22 02:25:48;;;;;;;10.45;6.03;;;14.10;57.60;;;;;;5050309;28;20033;-64
2022/04/22 02:28:32;;;;;;;10.90;6.35;;;14.00;57.70;;;;;;5055591;28;20446;-65
2022/04/22 02:31:06;;;;;;;10.23;5.72;;;14.00;57.80;;;;;;5052222;28;20045;-64
2022/04/22 02:33:37;;;;;;;10.90;5.72;;;14.00;58.00;;;;;;5056231;28;20458;-65
2022/04/22 02:36:04;;;;;;;9.27;5.40;;;14.00;58.20;;;;;;5040932;28;20449;-64
2022/04/22 02:38:30;;;;;;;9.45;5.22;;;14.00;58.20;;;;;;5056390;28;20094;-64
2022/04/22 02:46:29;;;;;;;8.85;5.15;;;13.90;58.70;;;;;;5041822;28;20035;-64
2022/04/22 02:48:59;;;;;;;8.48;4.50;;;13.90;58.90;;;;;;5055995;28;20115;-64
2022/04/22 02:51:24;;;;;;;10.73;5.30;;;13.90;59.10;;;;;;5042624;28;20060;-64
2022/04/22 02:53:51;;;;;;;8.18;5.18;;;13.80;59.30;;;;;;5043226;28;20048;-64
2022/04/22 02:56:18;;;;;;;9.85;5.68;;;13.80;59.60;;;;;;5049634;28;20025;-64
2022/04/22 02:58:44;;;;;;;9.45;4.63;;;13.70;59.80;;;;;;5053613;28;20035;-64
2022/04/22 03:01:10;;;;;;;9.93;5.93;;;13.70;60.00;;;;;;5047621;28;20025;-64
2022/04/22 03:03:36;;;;;;;9.15;5.50;;;13.70;60.20;;;;;;5054789;28;20059;-64
2022/04/22 03:06:03;;;;;;;9.93;5.43;;;13.70;60.40;;;;;;5054010;28;20442;-64
2022/04/22 03:08:29;;;;;;;11.57;5.57;;;13.70;60.60;;;;;;5036548;28;20093;-65
2022/04/22 03:10:55;;;;;;;11.48;6.00;;;13.70;60.80;;;;;;5046272;28;20383;-64
2022/04/22 03:13:21;;;;;;;11.10;5.78;;;13.70;61.00;;;;;;5055419;28;20029;-64
2022/04/22 03:15:47;;;;;;;11.18;5.88;;;13.70;61.30;;;;;;5043992;28;20481;-64
2022/04/22 03:18:13;;;;;;;11.15;6.07;;;13.70;61.40;;;;;;5051879;28;20454;-64
2022/04/22 03:20:39;;;;;;;10.80;6.60;;;13.60;61.50;;;;;;5047696;28;20036;-64
2022/04/22 03:23:04;;;;;;;11.23;5.97;;;13.60;61.70;;;;;;5051107;28;20137;-64
2022/04/22 03:25:30;;;;;;;12.15;7.18;;;13.60;62.00;;;;;;5046766;28;20419;-64
2022/04/22 03:27:55;;;;;;;11.52;6.68;;;13.60;62.20;;;;;;5048550;28;20408;-64
2022/04/22 03:30:25;;;;;;;11.73;6.75;;;13.60;62.40;;;;;;5052443;28;20029;-64
2022/04/22 03:32:51;;;;;;;11.82;6.70;;;13.50;62.50;;;;;;5055672;28;20037;-64
2022/04/22 03:35:18;;;;;;;11.20;7.00;;;13.50;62.70;;;;;;5056691;28;20420;-64
2022/04/22 03:37:44;;;;;;;12.82;7.35;;;13.50;62.80;;;;;;5056583;28;20029;-64
2022/04/22 03:40:10;;;;;;;11.52;6.65;;;13.50;62.90;;;;;;5052594;28;20067;-64
2022/04/22 03:42:36;;;;;;;11.00;7.20;;;13.50;63.00;;;;;;5055716;28;20037;-64
2022/04/22 03:45:04;;;;;;;9.30;6.50;;;13.50;63.10;;;;;;5057452;28;20057;-64
2022/04/22 03:47:29;;;;;;;13.38;6.72;;;13.50;63.30;;;;;;5047825;28;20025;-64
2022/04/22 03:49:55;;;;;;;12.80;7.53;;;13.50;63.30;;;;;;5040386;28;20029;-64
2022/04/22 03:52:20;;;;;;;11.77;6.93;;;13.50;63.40;;;;;;5049400;28;20103;-64
2022/04/22 03:54:47;;;;;;;10.52;6.63;;;13.40;63.40;;;;;;5051823;28;20029;-64
2022/04/22 03:59:57;;;;;;;10.68;6.72;;;13.40;63.60;;;;;;5054645;28;20075;-65
2022/04/22 04:02:22;;;;;;;12.13;7.80;;;13.40;63.70;;;;;;5051735;28;20398;-64
2022/04/22 04:04:49;;;;;;;13.35;8.20;;;13.40;63.80;;;;;;5053909;28;20040;-64
2022/04/22 04:07:14;;;;;;;11.30;7.40;;;13.40;63.90;;;;;;5044570;28;20056;-64
2022/04/22 04:17:53;;;;;;;12.13;7.40;;;13.30;64.10;;;;;;5049440;28;20025;-63
2022/04/22 04:23:15;;;;;;;12.18;7.97;;;13.30;64.40;;;;;;5043182;28;20032;-64
2022/04/22 04:25:46;;;;;;;12.98;8.15;;;13.20;64.40;;;;;;5053301;28;20033;-64
2022/04/22 04:28:13;;;;;;;14.60;7.72;;;13.20;64.50;;;;;;5045501;28;20093;-64
2022/04/22 04:30:43;;;;;;;12.15;7.50;;;13.20;64.60;;;;;;5045151;28;20043;-64
2022/04/22 04:33:10;;;;;;;11.40;7.70;;;13.20;64.70;;;;;;5048748;28;20064;-65
2022/04/22 04:35:38;;;;;;;11.68;7.32;;;13.20;64.70;;;;;;5047648;28;20021;-64
2022/04/22 04:38:06;;;;;;;13.52;8.48;;;13.20;64.80;;;;;;5049789;28;20028;-63
2022/04/22 04:40:32;;;;;;;12.93;8.40;;;13.20;64.80;;;;;;5054546;28;20458;-63
2022/04/22 04:43:00;;;;;;;10.20;7.18;;;13.20;64.90;;;;;;5057713;28;20087;-63
2022/04/22 04:45:27;;;;;;;11.32;7.43;;;13.20;64.90;;;;;;5057176;28;20031;-63
2022/04/22 04:47:53;;;;;;;11.00;7.22;;;13.20;65.60;;;;;;5054548;28;20035;-63
2022/04/22 04:50:18;;;;;;;12.50;8.07;;;13.20;64.90;;;;;;5056508;28;20028;-64
2022/04/22 04:52:44;;;;;;;10.75;7.65;;;13.20;65.00;;;;;;5055688;28;20152;-63
2022/04/22 04:55:13;;;;;;;11.23;7.22;;;13.20;65.00;;;;;;5057147;28;20025;-63
2022/04/22 04:57:38;;;;;;;13.68;8.63;;;13.20;65.00;;;;;;5052991;28;20040;-64
2022/04/22 05:00:06;;;;;;;11.60;7.25;;;13.20;65.10;;;;;;5056700;28;20025;-64
2022/04/22 05:02:35;;;;;;;11.25;8.23;;;13.20;65.20;;;;;;5045888;28;20072;-63
2022/04/22 05:05:01;;;;;;;11.93;8.05;;;13.20;65.20;;;;;;5039638;28;20033;-63
2022/04/22 05:07:27;;;;;;;12.02;7.68;;;13.20;65.20;;;;;;5056492;28;20064;-63
2022/04/22 05:09:53;;;;;;;13.50;8.18;;;13.20;65.20;;;;;;5057951;28;20435;-64
2022/04/22 05:12:19;;;;;;;13.38;8.00;;;13.20;65.20;;;;;;5056137;28;20036;-63
2022/04/22 05:14:46;;;;;;;10.85;7.82;;;13.20;65.10;;;;;;5056512;28;20037;-63
2022/04/22 05:17:12;;;;;;;13.32;8.00;;;13.20;65.00;;;;;;5055928;28;20513;-63
2022/04/22 05:19:38;;;;;;;11.55;7.50;;;13.20;65.10;;;;;;5058174;28;20052;-63
2022/04/22 05:22:04;;;;;;;10.75;7.45;;;13.20;65.10;;;;;;5056073;28;20041;-64
2022/04/22 05:24:31;;;;;;;11.15;7.50;;;13.20;65.10;;;;;;5049541;28;20033;-64
2022/04/22 05:26:57;;;;;;;10.63;7.35;;;13.20;65.20;;;;;;5055530;28;20076;-63
2022/04/22 05:34:52;;;;;;;11.77;7.18;;;13.30;65.00;;;;;;5053277;28;20063;-64
2022/04/22 05:37:17;;;;;;;11.82;8.35;;;13.30;65.60;;;;;;5042478;28;20068;-63
2022/04/22 05:39:43;;;;;;;12.90;7.90;;;13.40;64.90;;;;;;5054986;28;20041;-63
2022/04/22 05:42:09;;;;;;;11.00;7.45;;;13.40;64.80;;;;;;5046908;28;20059;-64
2022/04/22 05:44:35;;;;;;;11.20;8.20;;;13.50;64.70;;;;;;5057101;28;20036;-63
2022/04/22 05:47:01;;;;;;;12.88;8.18;;;13.70;64.40;;;;;;5055676;28;20438;-63
2022/04/22 05:49:27;;;;;;;11.68;8.27;;;13.90;64.00;;;;;;5044057;28;20436;-63
2022/04/22 05:51:54;;;;;;;10.57;7.80;;;14.20;63.20;;;;;;5038192;28;20052;-63
2022/04/22 05:54:20;;;;;;;11.48;7.50;;;14.70;62.30;;;;;;5037951;28;20466;-63
2022/04/22 05:56:45;;;;;;;11.05;7.57;;;15.00;61.40;;;;;;5037307;28;20026;-64
2022/04/22 05:59:11;;;;;;;11.35;8.50;;;15.10;60.80;;;;;;5054711;28;20079;-64
2022/04/22 06:01:37;;;;;;;10.90;8.05;;;15.30;60.50;;;;;;5055893;28;20422;-64
2022/04/22 06:04:02;;;;;;;11.80;8.13;;;15.30;60.20;;;;;;5054094;28;20025;-64
2022/04/22 06:06:28;;;;;;;10.68;7.18;;;15.30;60.30;;;;;;5055406;28;20033;-64
2022/04/22 06:11:38;;;;;;;10.35;6.95;;;15.60;59.70;;;;;;5054865;28;20036;-64
2022/04/22 06:14:03;;;;;;;10.05;7.05;;;16.00;58.90;;;;;;5049496;28;20040;-64
2022/04/22 06:16:29;;;;;;;11.98;7.35;;;16.20;58.40;;;;;;5055386;28;20033;-64
2022/04/22 06:18:54;;;;;;;10.70;7.78;;;16.10;58.30;;;;;;5055158;28;20037;-64
2022/04/22 06:21:20;;;;;;;11.52;8.10;;;16.00;58.50;;;;;;5034112;28;20029;-65
2022/04/22 06:23:46;;;;;;;11.90;7.95;;;15.80;58.80;;;;;;5050890;28;20025;-63
2022/04/22 06:26:11;;;;;;;10.48;7.85;;;15.50;59.10;;;;;;5054507;28;20496;-64
2022/04/22 06:28:37;;;;;;;11.20;8.30;;;15.50;59.40;;;;;;5054656;28;20032;-63
2022/04/22 06:31:03;;;;;;;12.23;8.35;;;15.40;59.50;;;;;;5054373;28;20033;-63
2022/04/22 06:33:29;;;;;;;13.52;8.90;;;15.40;59.50;;;;;;5055335;28;20037;-63
2022/04/22 06:35:58;;;;;;;10.50;7.82;;;15.50;59.40;;;;;;5055008;28;20067;-62
2022/04/22 06:38:25;;;;;;;13.25;7.97;;;15.70;59.10;;;;;;5054948;28;20055;-63
2022/04/22 06:46:20;;;;;;;12.10;7.65;;;16.20;58.00;;;;;;5051977;28;20432;-63
2022/04/22 06:48:46;;;;;;;13.23;7.82;;;16.40;57.60;;;;;;5054489;28;20037;-63
2022/04/22 06:51:12;;;;;;;14.45;8.18;;;16.50;57.20;;;;;;5034894;28;20080;-63
2022/04/22 06:53:39;;;;;;;12.27;7.43;;;16.60;57.00;;;;;;5040922;28;20063;-63
2022/04/22 06:56:08;;;;;;;14.18;9.10;;;16.80;56.70;;;;;;5056071;28;20028;-63
2022/04/22 06:58:37;;;;;;;11.80;7.30;;;16.90;56.30;;;;;;5052424;28;20059;-63
2022/04/22 07:01:04;;;;;;;11.98;7.50;;;17.00;55.90;;;;;;5051511;28;20029;-64
2022/04/22 07:03:30;;;;;;;11.52;8.02;;;17.20;55.70;;;;;;5053478;28;20029;-64
2022/04/22 07:05:56;;;;;;;12.30;7.85;;;17.30;55.30;;;;;;5053984;28;20112;-63
2022/04/22 07:08:22;;;;;;;11.38;7.30;;;17.40;55.00;;;;;;5054846;28;20151;-65
2022/04/22 07:10:49;;;;;;;13.05;8.20;;;17.50;54.80;;;;;;5053703;28;20025;-65
2022/04/22 07:13:18;;;;;;;11.18;7.55;;;17.60;54.60;;;;;;5047629;28;20035;-64
2022/04/22 07:15:46;;;;;;;13.60;8.43;;;17.70;54.30;;;;;;5050429;28;20029;-63
2022/04/22 07:18:13;;;;;;;12.18;7.85;;;17.90;54.00;;;;;;5052291;28;20082;-63
2022/04/22 07:20:39;;;;;;;14.15;8.70;;;18.10;53.80;;;;;;5051626;28;20040;-63
2022/04/22 07:23:05;;;;;;;12.82;8.63;;;18.10;53.50;;;;;;5049541;28;20116;-63
2022/04/22 07:25:31;;;;;;;13.05;8.60;;;18.10;53.40;;;;;;5053372;28;20017;-64
2022/04/22 07:27:58;;;;;;;13.43;8.32;;;18.20;53.20;;;;;;5054392;28;20430;-63
2022/04/22 07:30:25;;;;;;;12.60;8.02;;;18.30;53.00;;;;;;5045728;28;20048;-63
2022/04/22 07:32:51;;;;;;;13.73;8.32;;;18.30;52.70;;;;;;5051420;28;20045;-63
2022/04/22 07:35:19;;;;;;;12.05;8.45;;;18.40;52.50;;;;;;5052500;28;20433;-63
2022/04/22 07:37:45;;;;;;;12.43;8.52;;;18.50;52.20;;;;;;5052914;28;20045;-63
2022/04/22 07:40:12;;;;;;;13.10;8.18;;;18.60;52.10;;;;;;5048821;28;20414;-63
2022/04/22 07:42:42;;;;;;;13.20;7.32;;;18.70;51.70;;;;;;5036168;28;20033;-63
2022/04/22 07:47:52;;;;;;;11.82;7.50;;;18.80;51.10;;;;;;5040861;28;20044;-62
2022/04/22 07:50:18;;;;;;;13.38;8.57;;;18.70;51.00;;;;;;5051407;28;20338;-63
2022/04/22 07:52:45;;;;;;;13.15;8.15;;;18.50;51.20;;;;;;5054356;28;20106;-63
2022/04/22 07:55:13;;;;;;;13.73;8.27;;;18.30;51.60;;;;;;5053696;28;20066;-63
2022/04/22 07:57:42;;;;;;;17.52;7.95;;;18.20;51.80;;;;;;5052738;28;20041;-63
2022/04/22 08:00:09;;;;;;;11.68;7.22;;;18.20;51.90;;;;;;5053226;28;20037;-63
2022/04/22 08:02:42;;;;;;;12.00;7.93;;;18.30;51.60;;;;;;5054174;28;20450;-63
2022/04/22 08:05:11;;;;;;;13.23;8.05;;;18.40;51.40;;;;;;5054266;28;20029;-63
2022/04/22 08:07:38;;;;;;;11.93;7.80;;;18.30;51.50;;;;;;5054470;28;20052;-63
2022/04/22 08:10:04;;;;;;;11.52;7.63;;;18.10;51.60;;;;;;5050787;28;20029;-63
2022/04/22 08:12:30;;;;;;;10.85;7.22;;;18.00;51.80;;;;;;5054615;28;20024;-64
2022/04/22 08:14:57;;;;;;;12.55;7.85;;;17.90;51.80;;;;;;5054397;28;20440;-63
2022/04/22 08:17:23;;;;;;;11.65;7.57;;;17.80;51.90;;;;;;5054930;28;20123;-64
2022/04/22 08:19:48;;;;;;;12.70;8.13;;;17.80;51.90;;;;;;5054657;28;20099;-63
2022/04/22 08:22:14;;;;;;;12.63;8.00;;;17.80;51.90;;;;;;5053493;28;20045;-64
2022/04/22 08:24:40;;;;;;;12.48;7.50;;;17.90;51.80;;;;;;5054441;28;20082;-64
2022/04/22 08:27:06;;;;;;;11.45;7.40;;;17.90;51.70;;;;;;5030034;28;20494;-64
2022/04/22 08:29:33;;;;;;;13.13;8.07;;;18.00;51.70;;;;;;5049949;28;20102;-64
2022/04/22 08:31:58;;;;;;;13.18;7.30;;;18.00;51.60;;;;;;5045830;28;20036;-64
2022/04/22 08:34:24;;;;;;;11.52;7.47;;;18.00;51.60;;;;;;5045912;28;20087;-64
2022/04/22 08:36:49;;;;;;;13.13;7.70;;;18.00;51.40;;;;;;5053076;28;20033;-64
2022/04/22 08:39:16;;;;;;;13.00;7.97;;;18.00;51.30;;;;;;5051828;28;20381;-64
2022/04/22 08:41:42;;;;;;;12.52;7.63;;;18.00;51.30;;;;;;5053896;28;20439;-64
2022/04/22 08:44:11;;;;;;;14.65;7.75;;;18.10;51.30;;;;;;5051694;28;20033;-64
2022/04/22 08:52:09;;;;;;;11.10;7.47;;;18.10;51.30;;;;;;5034377;28;20072;-64
2022/04/22 08:54:38;;;;;;;10.35;7.00;;;18.10;51.20;;;;;;5051652;28;20533;-64
2022/04/22 08:57:03;;;;;;;10.38;6.63;;;18.10;51.20;;;;;;5034302;28;20088;-64
2022/04/22 08:59:29;;;;;;;10.88;6.28;;;18.10;51.20;;;;;;5045903;28;20029;-64
2022/04/22 09:01:56;;;;;;;10.60;7.05;;;18.20;51.10;;;;;;5053107;28;20370;-64
2022/04/22 09:04:22;;;;;;;10.73;7.00;;;18.30;50.80;;;;;;5049185;28;20460;-64
2022/04/22 09:06:50;;;;;;;12.80;6.60;;;18.30;50.60;;;;;;5035921;28;20041;-63
2022/04/22 09:09:18;;;;;;;10.95;6.57;;;18.50;50.40;;;;;;5032414;28;20409;-66
2022/04/22 09:11:44;;;;;;;10.82;6.90;;;18.70;49.90;;;;;;5049492;28;20451;-65
2022/04/22 09:14:14;;;;;;;12.15;6.78;;;19.00;49.50;;;;;;5053430;28;20048;-63
2022/04/22 09:16:41;;;;;;;9.95;6.45;;;19.20;49.20;;;;;;5043650;28;20032;-64
2022/04/22 09:19:06;;;;;;;8.90;6.57;;;19.30;48.90;;;;;;5049249;28;20170;-65
2022/04/22 09:21:32;;;;;;;13.90;7.00;;;19.50;48.60;;;;;;5050849;28;20486;-65
2022/04/22 09:24:13;;;;;;;10.35;5.93;;;19.60;48.30;;;;;;5053145;28;20096;-65
2022/04/22 09:26:40;;;;;;;11.27;5.82;;;19.90;48.10;;;;;;5039900;28;20021;-65
2022/04/22 09:29:06;;;;;;;10.20;6.03;;;20.20;47.90;;;;;;5056969;28;20067;-65
2022/04/22 09:31:49;;;;;;;8.77;5.97;;;20.50;47.40;;;;;;5047207;28;20037;-65
2022/04/22 09:34:15;;;;;;;10.10;5.80;;;20.60;46.60;;;;;;5056285;28;20045;-66
2022/04/22 09:45:04;;;;;;;10.07;5.28;;;20.90;45.80;;;;;;5054390;28;20033;-65
2022/04/22 09:47:32;;;;;;;8.20;4.95;;;21.00;45.90;;;;;;5053346;28;20058;-65
2022/04/22 09:50:05;;;;;;;10.88;5.63;;;21.00;45.60;;;;;;5056946;28;20104;-65
2022/04/22 09:52:34;;;;;;;8.02;5.05;;;21.10;45.50;;;;;;5054539;28;20032;-65
2022/04/22 09:55:04;;;;;;;12.27;4.78;;;21.30;45.30;;;;;;5056276;28;20060;-65
2022/04/22 09:57:59;;;;;;;8.63;4.82;;;21.40;44.90;;;;;;5046523;28;20017;-65
2022/04/22 10:00:26;;;;;;;9.60;5.47;;;21.50;44.70;;;;;;5055189;28;20045;-65
2022/04/22 10:02:53;;;;;;;10.43;4.50;;;21.40;44.50;;;;;;5054182;28;20132;-65
2022/04/22 10:05:22;;;;;;;9.15;4.82;;;21.40;44.60;;;;;;5055734;28;20043;-65
2022/04/22 10:07:52;;;;;;;7.32;4.45;;;21.50;44.40;;;;;;5054629;28;20029;-65
2022/04/22 10:10:25;;;;;;;9.23;5.05;;;21.60;44.30;;;;;;5055405;28;20086;-66
2022/04/22 10:12:54;;;;;;;9.30;5.28;;;21.70;44.10;;;;;;5053095;28;20047;-65
2022/04/22 10:15:23;;;;;;;10.50;5.35;;;21.60;44.00;;;;;;5055754;28;20377;-65
2022/04/22 10:17:49;;;;;;;9.25;5.20;;;21.30;44.30;;;;;;5050332;28;20127;-65
2022/04/22 10:20:16;;;;;;;9.00;4.97;;;21.10;44.50;;;;;;5055966;28;20375;-65
2022/04/22 10:22:43;;;;;;;8.45;4.72;;;21.10;44.60;;;;;;5056163;28;20035;-65
2022/04/22 10:25:09;;;;;;;11.82;4.78;;;21.10;44.50;;;;;;5050139;28;20048;-64
2022/04/22 10:27:37;;;;;;;9.00;4.70;;;21.30;44.40;;;;;;5055652;28;20070;-64
2022/04/22 10:30:03;;;;;;;9.85;4.93;;;21.40;44.00;;;;;;5054391;28;20362;-65
2022/04/22 10:32:31;;;;;;;8.45;5.22;;;21.60;43.80;;;;;;5053995;28;20052;-65
2022/04/22 10:34:58;;;;;;;9.23;4.70;;;21.70;43.70;;;;;;5054355;28;20025;-65
2022/04/22 10:37:28;;;;;;;8.60;4.68;;;21.80;43.50;;;;;;5050940;28;20039;-65
2022/04/22 10:39:56;;;;;;;7.70;4.70;;;22.00;43.10;;;;;;5041207;28;20040;-65
2022/04/22 10:42:38;;;;;;;7.93;4.60;;;22.10;42.90;;;;;;5041179;28;20035;-65
2022/04/22 10:47:49;;;;;;;8.57;4.40;;;22.20;42.70;;;;;;5048211;28;20029;-65
2022/04/22 10:50:37;;;;;;;9.70;4.85;;;22.20;42.50;;;;;;5054949;28;20040;-65
2022/04/22 10:53:07;;;;;;;8.80;4.72;;;22.30;42.40;;;;;;5055439;28;20025;-65
2022/04/22 10:55:40;;;;;;;8.48;4.72;;;22.30;42.30;;;;;;5052887;28;20021;-65
2022/04/22 10:58:13;;;;;;;9.13;4.07;;;22.40;42.00;;;;;;5055054;28;20166;-65
2022/04/22 11:00:46;;;;;;;8.00;4.28;;;22.40;41.70;;;;;;5051877;28;20041;-65
2022/04/22 11:03:20;;;;;;;9.25;4.43;;;22.40;41.40;;;;;;5052016;28;20025;-65
2022/04/22 11:05:56;;;;;;;8.00;4.55;;;22.40;41.00;;;;;;5053560;28;20033;-64
2022/04/22 11:08:31;;;;;;;8.02;4.20;;;22.40;41.00;;;;;;5051806;28;21485;-64
2022/04/22 11:11:00;;;;;;;7.70;4.10;;;22.40;40.90;;;;;;5044218;28;20036;-64
2022/04/22 11:13:29;;;;;;;9.50;4.53;;;22.40;41.60;;;;;;5054492;28;20112;-65
2022/04/22 11:15:57;;;;;;;9.23;4.50;;;22.10;41.10;;;;;;5052656;28;20116;-65
2022/04/22 11:18:23;;;;;;;8.52;3.95;;;22.10;41.20;;;;;;5054697;28;20032;-65
2022/04/22 11:21:05;;;;;;;6.68;3.33;;;22.20;41.10;;;;;;5049393;28;20021;-65
2022/04/22 11:23:40;;;;;;;7.57;3.47;;;22.30;40.80;;;;;;5054145;28;20061;-65
2022/04/22 11:26:06;;;;;;;6.43;3.13;;;22.40;40.50;;;;;;5048606;28;20030;-65
2022/04/22 11:28:37;;;;;;;6.28;3.08;;;22.50;40.40;;;;;;5052129;28;20461;-69
2022/04/22 11:31:05;;;;;;;6.22;3.17;;;22.60;40.00;;;;;;5045739;28;20029;-68
2022/04/22 11:33:45;;;;;;;7.22;3.50;;;22.60;39.70;;;;;;5036518;28;20049;-69
2022/04/22 11:36:11;;;;;;;6.60;3.47;;;22.50;39.20;;;;;;5048873;28;20021;-68
2022/04/22 11:38:55;;;;;;;6.25;3.25;;;22.30;39.30;;;;;;5053305;28;20074;-67
2022/04/22 11:41:22;;;;;;;7.15;3.13;;;22.00;39.30;;;;;;5049202;28;20450;-67
2022/04/22 11:43:49;;;;;;;6.72;3.20;;;21.90;39.40;;;;;;5053994;28;20033;-68
2022/04/22 11:46:16;;;;;;;10.82;3.70;;;21.70;39.20;;;;;;5052882;28;20054;-67
2022/04/22 11:48:46;;;;;;;6.47;3.30;;;21.40;39.20;;;;;;5052638;28;20025;-67
2022/04/22 11:51:12;;;;;;;6.78;2.85;;;21.20;39.40;;;;;;5042997;28;20033;-69
2022/04/22 11:53:48;;;;;;;7.13;3.30;;;21.10;39.60;;;;;;5050501;28;20082;-68
2022/04/22 11:56:22;;;;;;;7.65;3.42;;;20.90;39.70;;;;;;5043733;28;20026;-69
2022/04/22 11:58:55;;;;;;;7.57;3.03;;;20.70;39.80;;;;;;5053413;28;20025;-68
2022/04/22 12:06:58;;;;;;;5.90;2.90;;;20.30;40.30;;;;;;5049533;28;20051;-68
2022/04/22 12:09:24;;;;;;;8.07;3.10;;;20.30;40.20;;;;;;5051368;28;20449;-68
2022/04/22 12:11:51;;;;;;;7.32;3.30;;;20.40;40.20;;;;;;5053277;28;20083;-68
2022/04/22 12:14:27;;;;;;;6.75;3.30;;;20.30;40.30;;;;;;5054176;28;20033;-68
2022/04/22 12:17:01;;;;;;;6.15;3.13;;;20.20;40.40;;;;;;5047222;28;20426;-66
2022/04/22 12:19:27;;;;;;;6.95;3.25;;;20.10;40.40;;;;;;5053048;28;20438;-68
2022/04/22 12:21:53;;;;;;;7.45;3.28;;;20.10;40.60;;;;;;5052076;28;20408;-68
2022/04/22 12:24:21;;;;;;;10.13;3.67;;;20.20;40.70;;;;;;5051590;28;20025;-69
2022/04/22 12:26:47;;;;;;;7.03;3.38;;;20.20;40.70;;;;;;5039985;28;20025;-69
2022/04/22 12:29:15;;;;;;;6.68;3.72;;;20.20;40.70;;;;;;5039669;28;20028;-70
2022/04/22 12:31:43;;;;;;;8.85;3.92;;;20.30;40.70;;;;;;5047962;28;20082;-69
2022/04/22 12:34:14;;;;;;;8.63;4.13;;;20.40;40.80;;;;;;5054317;28;20041;-70
2022/04/22 12:36:56;;;;;;;6.60;3.50;;;20.50;40.90;;;;;;5047229;28;20120;-69
2022/04/22 12:39:36;;;;;;;9.48;3.25;;;20.50;40.70;;;;;;5050951;28;20025;-69
2022/04/22 12:42:03;;;;;;;13.07;3.90;;;20.60;40.50;;;;;;5050656;28;20096;-69
2022/04/22 12:44:29;;;;;;;9.70;4.10;;;20.60;40.50;;;;;;5036723;28;20774;-69
2022/04/22 12:52:45;;;;;;;8.68;4.43;;;20.90;40.40;;;;;;5051772;28;20044;-69
2022/04/22 12:55:12;;;;;;;8.77;3.72;;;20.90;40.50;;;;;;5052755;28;20377;-68
2022/04/22 12:57:41;;;;;;;8.15;3.67;;;20.80;40.60;;;;;;5052288;28;20116;-68
2022/04/22 13:00:20;;;;;;;7.43;4.03;;;20.60;40.60;;;;;;5046808;28;20025;-68
2022/04/22 13:02:46;;;;;;;8.15;3.63;;;20.60;40.60;;;;;;5056771;28;20090;-66
2022/04/22 13:05:19;;;;;;;7.63;4.00;;;20.60;40.50;;;;;;5057411;28;20126;-68
2022/04/22 13:07:47;;;;;;;7.15;3.53;;;20.60;40.20;;;;;;5056714;28;20170;-66
2022/04/22 13:10:14;;;;;;;7.10;3.67;;;20.50;40.30;;;;;;5056408;28;20031;-66
2022/04/22 13:12:41;;;;;;;7.82;3.20;;;20.50;40.50;;;;;;5054201;28;20025;-68
2022/04/22 13:15:19;;;;;;;8.73;3.85;;;20.50;40.50;;;;;;5053975;28;20029;-67
2022/04/22 13:17:53;;;;;;;7.60;3.38;;;20.50;40.20;;;;;;5053147;28;20118;-67
2022/04/22 13:20:20;;;;;;;7.30;3.50;;;20.30;40.20;;;;;;5051976;28;20115;-66
2022/04/22 13:22:47;;;;;;;7.68;3.45;;;20.20;40.40;;;;;;5053738;28;20040;-68
2022/04/22 13:25:15;;;;;;;9.45;4.20;;;20.10;40.50;;;;;;5057462;28;20115;-68
2022/04/22 13:27:41;;;;;;;7.13;3.25;;;20.10;40.70;;;;;;5056292;28;20037;-68
2022/04/22 13:30:12;;;;;;;7.40;3.55;;;20.00;40.80;;;;;;5054200;28;20037;-68
2022/04/22 13:32:38;;;;;;;8.05;3.92;;;20.00;40.90;;;;;;5050771;28;20045;-67
2022/04/22 13:35:05;;;;;;;7.20;3.40;;;20.00;40.90;;;;;;5057300;28;20044;-67
2022/04/22 13:37:32;;;;;;;7.68;2.95;;;19.90;40.70;;;;;;5038205;28;20024;-68
2022/04/22 13:39:58;;;;;;;9.68;3.53;;;19.90;40.70;;;;;;5054795;28;20044;-68
2022/04/22 13:42:24;;;;;;;7.90;3.40;;;19.90;40.80;;;;;;5036365;28;20068;-69
2022/04/22 13:53:04;;;;;;;7.47;3.33;;;20.00;40.80;;;;;;5041144;28;20104;-68
2022/04/22 13:55:30;;;;;;;6.75;3.20;;;20.00;40.70;;;;;;5026285;28;20037;-67
2022/04/22 13:57:56;;;;;;;7.07;3.70;;;19.90;40.70;;;;;;5041207;28;20045;-67
2022/04/22 14:00:23;;;;;;;7.72;3.85;;;19.90;40.70;;;;;;5043502;28;20032;-68
2022/04/22 14:02:48;;;;;;;8.75;3.50;;;19.90;40.70;;;;;;5025421;28;20025;-68